Terminal Aerodrome Forecast
Issued by NWS Sterling, VA

Current Version | Previous Version | Graphics & Text | Print | Product List | Glossary On
Versions: 1 2 3 4 5 6 7 8 9 10 11 12 13 14 15 16 17 18 19 20 21 22
128
FTUS41 KLWX 011123
TAFIAD
TAF
KIAD 011123Z 0112/0218 07006KT 3SM -RADZ BR OVC003
     FM011600 06005KT 5SM BR OVC008
     FM011800 12005KT P6SM OVC008
     FM020000 VRB03KT P6SM BKN030
     FM020600 00000KT 3SM BR BKN010
     FM021100 VRB03KT 3SM BR SCT010=

USA.gov is the U.S. government's official web portal to all federal, state and local government web resources and services.